sensor_id;sensor_type;location;lat;lon;timestamp;pressure;altitude;pressure_sealevel;temperature;humidity
4123;BME280;2075;51.062;6.920;2023-02-17T00:01:31;32985.44;;;-144.48;100.00
4123;BME280;2075;51.062;6.920;2023-02-17T00:04:17;33240.88;;;-144.48;100.00
4123;BME280;2075;51.062;6.920;2023-02-17T00:07:02;33751.78;;;-144.48;100.00
4123;BME280;2075;51.062;6.920;2023-02-17T00:09:49;33240.88;;;-144.48;100.00
4123;BME280;2075;51.062;6.920;2023-02-17T00:12:35;32219.28;;;-144.48;100.00
4123;BME280;2075;51.062;6.920;2023-02-17T00:15:20;34262.75;;;-144.48;100.00
4123;BME280;2075;51.062;6.920;2023-02-17T00:18:07;35029.38;;;-144.48;100.00
4123;BME280;2075;51.062;6.920;2023-02-17T00:20:53;33751.78;;;-144.48;100.00
4123;BME280;2075;51.062;6.920;2023-02-17T00:23:41;33751.78;;;-144.48;100.00
4123;BME280;2075;51.062;6.920;2023-02-17T00:26:26;35029.38;;;-144.48;100.00
4123;BME280;2075;51.062;6.920;2023-02-17T00:29:12;33751.78;;;-144.48;100.00
4123;BME280;2075;51.062;6.920;2023-02-17T00:31:57;32474.66;;;-144.48;100.00
4123;BME280;2075;51.062;6.920;2023-02-17T00:34:44;31708.63;;;-144.48;100.00
4123;BME280;2075;51.062;6.920;2023-02-17T00:37:34;30942.75;;;-144.48;100.00
4123;BME280;2075;51.062;6.920;2023-02-17T00:40:19;31453.31;;;-144.48;100.00
4123;BME280;2075;51.062;6.920;2023-02-17T00:43:05;31198.03;;;-144.48;100.00
4123;BME280;2075;51.062;6.920;2023-02-17T00:45:50;28901.31;;;-144.48;100.00
4123;BME280;2075;51.062;6.920;2023-02-17T00:48:38;27881.03;;;-144.48;100.00
4123;BME280;2075;51.062;6.920;2023-02-17T00:51:25;27881.03;;;-144.48;100.00
4123;BME280;2075;51.062;6.920;2023-02-17T00:54:10;26351.25;;;-144.48;100.00
4123;BME280;2075;51.062;6.920;2023-02-17T00:56:55;25586.63;;;-144.48;100.00
4123;BME280;2075;51.062;6.920;2023-02-17T00:59:41;25076.94;;;-144.48;100.00
4123;BME280;2075;51.062;6.920;2023-02-17T01:02:26;24567.38;;;-144.48;100.00
4123;BME280;2075;51.062;6.920;2023-02-17T01:05:11;24057.88;;;-144.48;100.00
4123;BME280;2075;51.062;6.920;2023-02-17T01:07:58;22784.44;;;-144.48;100.00
4123;BME280;2075;51.062;6.920;2023-02-17T01:10:45;22784.44;;;-144.48;100.00
4123;BME280;2075;51.062;6.920;2023-02-17T01:13:31;22529.81;;;-144.48;100.00
4123;BME280;2075;51.062;6.920;2023-02-17T01:16:18;22020.63;;;-144.48;100.00
4123;BME280;2075;51.062;6.920;2023-02-17T01:19:06;21002.47;;;-144.48;100.00
4123;BME280;2075;51.062;6.920;2023-02-17T01:21:52;21257.00;;;-144.48;100.00
4123;BME280;2075;51.062;6.920;2023-02-17T01:24:39;21766.06;;;-144.48;100.00
4123;BME280;2075;51.062;6.920;2023-02-17T01:27:24;21257.00;;;-144.48;100.00
4123;BME280;2075;51.062;6.920;2023-02-17T01:30:12;21511.53;;;-144.48;100.00
4123;BME280;2075;51.062;6.920;2023-02-17T01:32:57;21766.06;;;-144.48;100.00
4123;BME280;2075;51.062;6.920;2023-02-17T01:35:43;21002.47;;;-144.48;100.00
4123;BME280;2075;51.062;6.920;2023-02-17T01:38:29;21002.47;;;-144.48;100.00
4123;BME280;2075;51.062;6.920;2023-02-17T01:41:17;21511.53;;;-144.48;100.00
4123;BME280;2075;51.062;6.920;2023-02-17T01:44:06;21257.00;;;-144.48;100.00
4123;BME280;2075;51.062;6.920;2023-02-17T01:46:54;21511.53;;;-144.48;100.00
4123;BME280;2075;51.062;6.920;2023-02-17T01:49:40;21511.53;;;-144.48;100.00
4123;BME280;2075;51.062;6.920;2023-02-17T01:52:26;21002.47;;;-144.48;100.00
4123;BME280;2075;51.062;6.920;2023-02-17T01:55:13;21257.00;;;-144.48;100.00
4123;BME280;2075;51.062;6.920;2023-02-17T01:58:02;21766.06;;;-144.48;100.00
4123;BME280;2075;51.062;6.920;2023-02-17T02:00:51;21002.47;;;-144.48;100.00
4123;BME280;2075;51.062;6.920;2023-02-17T02:03:39;21002.47;;;-144.48;100.00
4123;BME280;2075;51.062;6.920;2023-02-17T02:06:26;20748.00;;;-144.48;100.00
4123;BME280;2075;51.062;6.920;2023-02-17T02:09:17;20239.06;;;-144.48;100.00
4123;BME280;2075;51.062;6.920;2023-02-17T02:12:15;19475.84;;;-144.48;100.00
4123;BME280;2075;51.062;6.920;2023-02-17T02:15:07;19475.84;;;-144.48;100.00
4123;BME280;2075;51.062;6.920;2023-02-17T02:18:12;19475.84;;;-144.48;100.00
4123;BME280;2075;51.062;6.920;2023-02-17T02:21:18;18712.78;;;-144.48;100.00
4123;BME280;2075;51.062;6.920;2023-02-17T02:24:32;19475.84;;;-144.48;100.00
4123;BME280;2075;51.062;6.920;2023-02-17T02:27:30;19730.22;;;-144.48;100.00
4123;BME280;2075;51.062;6.920;2023-02-17T02:33:46;19475.84;;;-144.48;100.00
4123;BME280;2075;51.062;6.920;2023-02-17T02:36:37;18458.47;;;-144.48;100.00
4123;BME280;2075;51.062;6.920;2023-02-17T02:39:29;18458.47;;;-144.48;100.00
4123;BME280;2075;51.062;6.920;2023-02-17T02:42:20;19475.84;;;-144.48;100.00
4123;BME280;2075;51.062;6.920;2023-02-17T02:45:09;18204.19;;;-144.48;100.00
4123;BME280;2075;51.062;6.920;2023-02-17T02:47:56;18967.13;;;-144.48;100.00
4123;BME280;2075;51.062;6.920;2023-02-17T02:54:28;18967.13;;;-144.48;100.00
4123;BME280;2075;51.062;6.920;2023-02-17T02:57:28;18967.13;;;-144.48;100.00
4123;BME280;2075;51.062;6.920;2023-02-17T03:00:21;18967.13;;;-144.48;100.00
4123;BME280;2075;51.062;6.920;2023-02-17T03:03:16;19730.22;;;-144.48;100.00
4123;BME280;2075;51.062;6.920;2023-02-17T03:06:08;19221.47;;;-144.48;100.00
4123;BME280;2075;51.062;6.920;2023-02-17T03:08:58;19730.22;;;-144.48;100.00
4123;BME280;2075;51.062;6.920;2023-02-17T03:11:47;18967.13;;;-144.48;100.00
4123;BME280;2075;51.062;6.920;2023-02-17T03:14:35;19221.47;;;-144.48;100.00
4123;BME280;2075;51.062;6.920;2023-02-17T03:17:21;18712.78;;;-144.48;100.00
4123;BME280;2075;51.062;6.920;2023-02-17T03:20:08;18712.78;;;-144.48;100.00
4123;BME280;2075;51.062;6.920;2023-02-17T03:22:55;18712.78;;;-144.48;100.00
4123;BME280;2075;51.062;6.920;2023-02-17T03:25:42;19984.66;;;-144.48;100.00
4123;BME280;2075;51.062;6.920;2023-02-17T03:28:28;19221.47;;;-144.48;100.00
4123;BME280;2075;51.062;6.920;2023-02-17T03:31:15;18967.13;;;-144.48;100.00
4123;BME280;2075;51.062;6.920;2023-02-17T03:34:00;20493.53;;;-144.48;100.00
4123;BME280;2075;51.062;6.920;2023-02-17T03:36:46;20239.06;;;-144.48;100.00
4123;BME280;2075;51.062;6.920;2023-02-17T03:39:32;20239.06;;;-144.48;100.00
4123;BME280;2075;51.062;6.920;2023-02-17T03:42:19;19221.47;;;-144.48;100.00
4123;BME280;2075;51.062;6.920;2023-02-17T03:45:04;19221.47;;;-144.48;100.00
4123;BME280;2075;51.062;6.920;2023-02-17T03:47:50;20493.53;;;-144.48;100.00
4123;BME280;2075;51.062;6.920;2023-02-17T03:50:35;20748.00;;;-144.48;100.00
4123;BME280;2075;51.062;6.920;2023-02-17T03:53:21;21257.00;;;-144.48;100.00
4123;BME280;2075;51.062;6.920;2023-02-17T03:56:08;20239.06;;;-144.48;100.00
4123;BME280;2075;51.062;6.920;2023-02-17T03:58:53;21002.47;;;-144.48;100.00
4123;BME280;2075;51.062;6.920;2023-02-17T04:01:38;22275.22;;;-144.48;100.00
4123;BME280;2075;51.062;6.920;2023-02-17T04:04:24;22275.22;;;-144.48;100.00
4123;BME280;2075;51.062;6.920;2023-02-17T04:07:09;23293.75;;;-144.48;100.00
4123;BME280;2075;51.062;6.920;2023-02-17T04:09:54;22529.81;;;-144.48;100.00
4123;BME280;2075;51.062;6.920;2023-02-17T04:12:41;23803.16;;;-144.48;100.00
4123;BME280;2075;51.062;6.920;2023-02-17T04:15:27;24567.38;;;-144.48;100.00
4123;BME280;2075;51.062;6.920;2023-02-17T04:18:13;25331.78;;;-144.48;100.00
4123;BME280;2075;51.062;6.920;2023-02-17T04:20:59;25076.94;;;-144.48;100.00
4123;BME280;2075;51.062;6.920;2023-02-17T04:23:44;24057.88;;;-144.48;100.00
4123;BME280;2075;51.062;6.920;2023-02-17T04:26:30;24567.38;;;-144.48;100.00
4123;BME280;2075;51.062;6.920;2023-02-17T04:29:16;26096.34;;;-144.48;100.00
4123;BME280;2075;51.062;6.920;2023-02-17T04:32:02;26096.34;;;-144.48;100.00
4123;BME280;2075;51.062;6.920;2023-02-17T04:34:47;26861.09;;;-144.48;100.00
4123;BME280;2075;51.062;6.920;2023-02-17T04:37:33;26861.09;;;-144.48;100.00
4123;BME280;2075;51.062;6.920;2023-02-17T04:40:18;27626.03;;;-144.48;100.00
4123;BME280;2075;51.062;6.920;2023-02-17T04:43:04;29411.56;;;-144.48;100.00
4123;BME280;2075;51.062;6.920;2023-02-17T04:45:51;28646.22;;;-144.48;100.00
4123;BME280;2075;51.062;6.920;2023-02-17T04:48:36;29156.41;;;-144.48;100.00
4123;BME280;2075;51.062;6.920;2023-02-17T04:51:22;28646.22;;;-144.48;100.00
4123;BME280;2075;51.062;6.920;2023-02-17T04:54:07;30687.50;;;-144.48;100.00
4123;BME280;2075;51.062;6.920;2023-02-17T04:56:52;30687.50;;;-144.48;100.00
4123;BME280;2075;51.062;6.920;2023-02-17T04:59:38;29411.56;;;-144.48;100.00
4123;BME280;2075;51.062;6.920;2023-02-17T05:02:25;29921.88;;;-144.48;100.00
4123;BME280;2075;51.062;6.920;2023-02-17T05:05:11;29156.41;;;-144.48;100.00
4123;BME280;2075;51.062;6.920;2023-02-17T05:07:58;30432.28;;;-144.48;100.00
4123;BME280;2075;51.062;6.920;2023-02-17T05:10:43;31198.03;;;-144.48;100.00
4123;BME280;2075;51.062;6.920;2023-02-17T05:13:28;31198.03;;;-144.48;100.00
4123;BME280;2075;51.062;6.920;2023-02-17T05:16:16;32474.66;;;-144.48;100.00
4123;BME280;2075;51.062;6.920;2023-02-17T05:19:03;33240.88;;;-144.48;100.00
4123;BME280;2075;51.062;6.920;2023-02-17T05:21:48;32474.66;;;-144.48;100.00
4123;BME280;2075;51.062;6.920;2023-02-17T05:24:34;31453.31;;;-144.48;100.00
4123;BME280;2075;51.062;6.920;2023-02-17T05:27:19;32219.28;;;-144.48;100.00
4123;BME280;2075;51.062;6.920;2023-02-17T05:30:06;32985.44;;;-144.48;100.00
4123;BME280;2075;51.062;6.920;2023-02-17T05:32:51;32474.66;;;-144.48;100.00
4123;BME280;2075;51.062;6.920;2023-02-17T05:35:38;32219.28;;;-144.48;100.00
4123;BME280;2075;51.062;6.920;2023-02-17T05:38:23;31708.63;;;-144.48;100.00
4123;BME280;2075;51.062;6.920;2023-02-17T05:41:08;34007.25;;;-144.48;100.00
4123;BME280;2075;51.062;6.920;2023-02-17T05:43:54;34518.28;;;-144.48;100.00
4123;BME280;2075;51.062;6.920;2023-02-17T05:46:39;34518.28;;;-144.48;100.00
4123;BME280;2075;51.062;6.920;2023-02-17T05:49:25;34007.25;;;-144.48;100.00
4123;BME280;2075;51.062;6.920;2023-02-17T05:52:12;34262.75;;;-144.48;100.00
4123;BME280;2075;51.062;6.920;2023-02-17T05:54:57;34773.81;;;-144.48;100.00
4123;BME280;2075;51.062;6.920;2023-02-17T05:57:42;32730.03;;;-144.48;100.00
4123;BME280;2075;51.062;6.920;2023-02-17T06:00:28;32219.28;;;-144.48;100.00
4123;BME280;2075;51.062;6.920;2023-02-17T06:03:14;32730.03;;;-144.48;100.00
4123;BME280;2075;51.062;6.920;2023-02-17T06:05:59;32985.44;;;-144.48;100.00
4123;BME280;2075;51.062;6.920;2023-02-17T06:08:46;32219.28;;;-144.48;100.00
4123;BME280;2075;51.062;6.920;2023-02-17T06:11:32;32730.03;;;-144.48;100.00
4123;BME280;2075;51.062;6.920;2023-02-17T06:14:17;32730.03;;;-144.48;100.00
4123;BME280;2075;51.062;6.920;2023-02-17T06:17:03;32219.28;;;-144.48;100.00
4123;BME280;2075;51.062;6.920;2023-02-17T06:19:48;31198.03;;;-144.48;100.00
4123;BME280;2075;51.062;6.920;2023-02-17T06:22:34;30432.28;;;-144.48;100.00
4123;BME280;2075;51.062;6.920;2023-02-17T06:25:21;29156.41;;;-144.48;100.00
4123;BME280;2075;51.062;6.920;2023-02-17T06:28:06;29411.56;;;-144.48;100.00
4123;BME280;2075;51.062;6.920;2023-02-17T06:30:51;28646.22;;;-144.48;100.00
4123;BME280;2075;51.062;6.920;2023-02-17T06:33:37;27881.03;;;-144.48;100.00
4123;BME280;2075;51.062;6.920;2023-02-17T06:36:25;27626.03;;;-144.48;100.00
4123;BME280;2075;51.062;6.920;2023-02-17T06:39:11;27116.06;;;-144.48;100.00
4123;BME280;2075;51.062;6.920;2023-02-17T06:41:57;26096.34;;;-144.48;100.00
4123;BME280;2075;51.062;6.920;2023-02-17T06:44:43;26096.34;;;-144.48;100.00
4123;BME280;2075;51.062;6.920;2023-02-17T06:47:28;25586.63;;;-144.48;100.00
4123;BME280;2075;51.062;6.920;2023-02-17T06:50:14;23548.44;;;-144.48;100.00
4123;BME280;2075;51.062;6.920;2023-02-17T06:52:59;22784.44;;;-144.48;100.00
4123;BME280;2075;51.062;6.920;2023-02-17T06:55:44;22275.22;;;-144.48;100.00
4123;BME280;2075;51.062;6.920;2023-02-17T06:58:31;19730.22;;;-144.48;100.00
4123;BME280;2075;51.062;6.920;2023-02-17T07:01:23;19984.66;;;-144.48;100.00
4123;BME280;2075;51.062;6.920;2023-02-17T07:04:09;20748.00;;;-144.48;100.00
4123;BME280;2075;51.062;6.920;2023-02-17T07:06:54;20239.06;;;-144.48;100.00
4123;BME280;2075;51.062;6.920;2023-02-17T07:09:40;19984.66;;;-144.48;100.00
4123;BME280;2075;51.062;6.920;2023-02-17T07:12:27;12614.66;;;-144.48;100.00
4123;BME280;2075;51.062;6.920;2023-02-17T07:15:14;9316.19;;;-144.48;100.00
4123;BME280;2075;51.062;6.920;2023-02-17T07:18:00;7034.56;;;-144.48;100.00
4123;BME280;2075;51.062;6.920;2023-02-17T07:20:45;5767.69;;;-144.48;100.00
4123;BME280;2075;51.062;6.920;2023-02-17T07:23:31;5514.38;;;-144.48;100.00
4123;BME280;2075;51.062;6.920;2023-02-17T07:26:17;5767.69;;;-144.48;100.00
4123;BME280;2075;51.062;6.920;2023-02-17T07:29:03;5767.69;;;-144.48;100.00
4123;BME280;2075;51.062;6.920;2023-02-17T07:31:50;6527.75;;;-144.48;100.00
4123;BME280;2075;51.062;6.920;2023-02-17T07:34:36;5767.69;;;-144.48;100.00
4123;BME280;2075;51.062;6.920;2023-02-17T07:37:27;7034.56;;;-144.48;100.00
4123;BME280;2075;51.062;6.920;2023-02-17T07:40:12;7034.56;;;-144.48;100.00
4123;BME280;2075;51.062;6.920;2023-02-17T07:42:58;7541.47;;;-144.48;100.00
4123;BME280;2075;51.062;6.920;2023-02-17T07:45:43;7794.94;;;-144.48;100.00
4123;BME280;2075;51.062;6.920;2023-02-17T07:48:30;9823.44;;;-144.48;100.00
4123;BME280;2075;51.062;6.920;2023-02-17T07:51:17;11091.88;;;-144.48;100.00
4123;BME280;2075;51.062;6.920;2023-02-17T07:54:03;11599.41;;;-144.48;100.00
4123;BME280;2075;51.062;6.920;2023-02-17T07:56:48;13122.41;;;-144.48;100.00
4123;BME280;2075;51.062;6.920;2023-02-17T07:59:34;12107.00;;;-144.48;100.00
4123;BME280;2075;51.062;6.920;2023-02-17T08:02:19;13630.22;;;-144.48;100.00
4123;BME280;2075;51.062;6.920;2023-02-17T08:05:07;13122.41;;;-144.48;100.00
4123;BME280;2075;51.062;6.920;2023-02-17T08:07:52;13122.41;;;-144.48;100.00
4123;BME280;2075;51.062;6.920;2023-02-17T08:10:51;13122.41;;;-144.48;100.00
4123;BME280;2075;51.062;6.920;2023-02-17T08:13:56;11599.41;;;-144.48;100.00
4123;BME280;2075;51.062;6.920;2023-02-17T08:16:42;13630.22;;;-144.48;100.00
4123;BME280;2075;51.062;6.920;2023-02-17T08:19:28;14392.13;;;-144.48;100.00
4123;BME280;2075;51.062;6.920;2023-02-17T08:22:15;13376.31;;;-144.48;100.00
4123;BME280;2075;51.062;6.920;2023-02-17T08:25:00;15154.19;;;-144.48;100.00
4123;BME280;2075;51.062;6.920;2023-02-17T08:27:48;14900.13;;;-144.48;100.00
4123;BME280;2075;51.062;6.920;2023-02-17T08:30:37;18204.19;;;-144.48;100.00
4123;BME280;2075;51.062;6.920;2023-02-17T08:33:23;18712.78;;;-144.48;100.00
4123;BME280;2075;51.062;6.920;2023-02-17T08:36:11;19730.22;;;-144.48;100.00
4123;BME280;2075;51.062;6.920;2023-02-17T08:38:58;23039.09;;;-144.48;100.00
4123;BME280;2075;51.062;6.920;2023-02-17T08:41:45;27626.03;;;-144.48;100.00
4123;BME280;2075;51.062;6.920;2023-02-17T08:44:33;31198.03;;;-144.48;100.00
4123;BME280;2075;51.062;6.920;2023-02-17T08:47:19;32730.03;;;-144.48;100.00
4123;BME280;2075;51.062;6.920;2023-02-17T08:50:08;33751.78;;;-144.48;100.00
4123;BME280;2075;51.062;6.920;2023-02-17T08:52:54;37330.31;;;-144.48;100.00
4123;BME280;2075;51.062;6.920;2023-02-17T08:55:42;40656.66;;;-144.48;100.00
4123;BME280;2075;51.062;6.920;2023-02-17T08:58:30;43217.66;;;-144.48;100.00
4123;BME280;2075;51.062;6.920;2023-02-17T09:01:22;49371.94;;;-144.48;100.00
4123;BME280;2075;51.062;6.920;2023-02-17T09:04:11;53481.06;;;-144.48;100.00
4123;BME280;2075;51.062;6.920;2023-02-17T09:06:57;62487.13;;;-144.48;100.00
4123;BME280;2075;51.062;6.920;2023-02-17T09:09:45;63517.94;;;-144.48;100.00
4123;BME280;2075;51.062;6.920;2023-02-17T09:12:32;70366.88;;;-144.48;100.00
4123;BME280;2075;51.062;6.920;2023-02-17T09:15:17;70481.88;;;-144.48;100.00
4123;BME280;2075;51.062;6.920;2023-02-17T09:18:03;71129.63;;;-144.48;100.00
4123;BME280;2075;51.062;6.920;2023-02-17T09:20:52;79735.31;;;-144.48;100.00
4123;BME280;2075;51.062;6.920;2023-02-17T09:23:37;79945.72;;;-144.48;100.00
4123;BME280;2075;51.062;6.920;2023-02-17T09:26:23;80524.44;;;-144.48;100.00
4123;BME280;2075;51.062;6.920;2023-02-17T09:29:10;84460.53;;;-144.48;100.00
4123;BME280;2075;51.062;6.920;2023-02-17T09:31:55;88334.22;;;-144.48;100.00
4123;BME280;2075;51.062;6.920;2023-02-17T09:34:41;90693.78;;;-144.48;98.54
4123;BME280;2075;51.062;6.920;2023-02-17T09:37:32;91004.31;;;-144.48;97.85
4123;BME280;2075;51.062;6.920;2023-02-17T09:40:20;92108.69;;;-144.48;96.06
4123;BME280;2075;51.062;6.920;2023-02-17T09:43:11;92045.75;;;-144.48;96.24
4123;BME280;2075;51.062;6.920;2023-02-17T09:46:06;92303.59;;;-144.48;95.42
4123;BME280;2075;51.062;6.920;2023-02-17T09:48:55;92866.09;;;-144.48;93.55
4123;BME280;2075;51.062;6.920;2023-02-17T09:51:44;93300.72;;;-144.48;91.28
4123;BME280;2075;51.062;6.920;2023-02-17T09:54:35;93367.75;;;-144.48;89.50
4123;BME280;2075;51.062;6.920;2023-02-17T09:57:27;93420.56;;;-144.48;88.23
4123;BME280;2075;51.062;6.920;2023-02-17T10:00:15;93449.00;;;-144.48;88.42
4123;BME280;2075;51.062;6.920;2023-02-17T10:03:12;93489.63;;;-144.48;88.01
4123;BME280;2075;51.062;6.920;2023-02-17T10:06:07;93463.22;;;-144.48;87.19
4123;BME280;2075;51.062;6.920;2023-02-17T10:09:00;93572.91;;;-144.48;85.31
4123;BME280;2075;51.062;6.920;2023-02-17T10:11:52;93562.75;;;-144.48;85.79
4123;BME280;2075;51.062;6.920;2023-02-17T10:14:47;93599.31;;;-144.48;84.30
4123;BME280;2075;51.062;6.920;2023-02-17T10:17:37;93619.63;;;-144.48;82.41
4123;BME280;2075;51.062;6.920;2023-02-17T10:20:39;93587.13;;;-144.48;82.60
4123;BME280;2075;51.062;6.920;2023-02-17T10:23:27;93615.56;;;-144.48;82.31
4123;BME280;2075;51.062;6.920;2023-02-17T10:26:21;93631.81;;;-144.48;81.77
4123;BME280;2075;51.062;6.920;2023-02-17T10:29:13;93680.56;;;-144.48;81.97
4123;BME280;2075;51.062;6.920;2023-02-17T10:32:14;93597.28;;;-144.48;83.35
4123;BME280;2075;51.062;6.920;2023-02-17T10:35:12;93609.47;;;-144.48;80.68
4123;BME280;2075;51.062;6.920;2023-02-17T10:38:04;93572.91;;;-144.48;79.50
4123;BME280;2075;51.062;6.920;2023-02-17T10:40:54;93574.94;;;-144.48;77.66
4123;BME280;2075;51.062;6.920;2023-02-17T10:43:41;93639.94;;;-144.48;78.65
4123;BME280;2075;51.062;6.920;2023-02-17T10:46:29;93648.06;;;-144.48;78.82
4123;BME280;2075;51.062;6.920;2023-02-17T10:49:20;93652.13;;;-144.48;79.15
4123;BME280;2075;51.062;6.920;2023-02-17T10:52:11;93668.38;;;-144.48;80.73
4123;BME280;2075;51.062;6.920;2023-02-17T10:55:03;93711.03;;;-144.48;81.11
4123;BME280;2075;51.062;6.920;2023-02-17T10:58:01;93735.41;;;-144.48;83.22
4123;BME280;2075;51.062;6.920;2023-02-17T11:00:52;93717.13;;;-144.48;84.13
4123;BME280;2075;51.062;6.920;2023-02-17T11:03:39;93946.69;;;-144.48;86.00
4123;BME280;2075;51.062;6.920;2023-02-17T11:06:25;93637.91;;;-144.48;86.95
4123;BME280;2075;51.062;6.920;2023-02-17T11:09:22;93593.22;;;-144.48;88.83
4123;BME280;2075;51.062;6.920;2023-02-17T11:12:14;93562.75;;;-144.48;88.50
4123;BME280;2075;51.062;6.920;2023-02-17T11:15:03;93552.59;;;-144.48;88.83
4123;BME280;2075;51.062;6.920;2023-02-17T11:17:49;93518.06;;;-144.48;88.49
4123;BME280;2075;51.062;6.920;2023-02-17T11:20:36;93554.63;;;-144.48;88.30
4123;BME280;2075;51.062;6.920;2023-02-17T11:23:23;93469.31;;;-144.48;88.48
4123;BME280;2075;51.062;6.920;2023-02-17T11:26:10;93526.19;;;-144.48;88.36
4123;BME280;2075;51.062;6.920;2023-02-17T11:29:10;93550.56;;;-144.48;86.73
4123;BME280;2075;51.062;6.920;2023-02-17T11:32:01;93562.75;;;-144.48;85.97
4123;BME280;2075;51.062;6.920;2023-02-17T11:34:56;93534.31;;;-144.48;85.85
4123;BME280;2075;51.062;6.920;2023-02-17T11:37:42;93593.22;;;-144.48;85.31
4123;BME280;2075;51.062;6.920;2023-02-17T11:40:29;93552.59;;;-144.48;85.95
4123;BME280;2075;51.062;6.920;2023-02-17T11:43:15;93631.81;;;-144.48;84.21
4123;BME280;2075;51.062;6.920;2023-02-17T11:46:17;93587.13;;;-144.48;82.98
4123;BME280;2075;51.062;6.920;2023-02-17T11:49:21;93623.69;;;-144.48;82.15
4123;BME280;2075;51.062;6.920;2023-02-17T11:52:18;93579.00;;;-144.48;81.13
4123;BME280;2075;51.062;6.920;2023-02-17T11:55:18;93635.88;;;-144.48;79.00
4123;BME280;2075;51.062;6.920;2023-02-17T11:58:16;93698.84;;;-144.48;80.54
4123;BME280;2075;51.062;6.920;2023-02-17T12:01:10;93658.22;;;-144.48;80.65
4123;BME280;2075;51.062;6.920;2023-02-17T12:04:15;93475.41;;;-144.48;80.32
4123;BME280;2075;51.062;6.920;2023-02-17T12:07:29;93729.31;;;-144.48;81.51
4123;BME280;2075;51.062;6.920;2023-02-17T12:10:22;93745.56;;;-144.48;81.49
4123;BME280;2075;51.062;6.920;2023-02-17T12:13:25;93719.16;;;-144.48;80.99
4123;BME280;2075;51.062;6.920;2023-02-17T12:16:26;93690.72;;;-144.48;80.82
4123;BME280;2075;51.062;6.920;2023-02-17T12:19:30;93733.38;;;-144.48;81.70
4123;BME280;2075;51.062;6.920;2023-02-17T12:22:25;93761.81;;;-144.48;83.99
4123;BME280;2075;51.062;6.920;2023-02-17T12:25:23;93698.84;;;-144.48;85.02
4123;BME280;2075;51.062;6.920;2023-02-17T12:28:39;93694.78;;;-144.48;84.71
4123;BME280;2075;51.062;6.920;2023-02-17T12:31:39;93664.31;;;-144.48;83.28
4123;BME280;2075;51.062;6.920;2023-02-17T12:34:29;93672.44;;;-144.48;83.01
4123;BME280;2075;51.062;6.920;2023-02-17T12:37:19;93711.03;;;-144.48;83.41
4123;BME280;2075;51.062;6.920;2023-02-17T12:40:15;93729.31;;;-144.48;83.96
4123;BME280;2075;51.062;6.920;2023-02-17T12:43:10;93664.31;;;-144.48;83.92
4123;BME280;2075;51.062;6.920;2023-02-17T12:46:14;93719.16;;;-144.48;83.68
4123;BME280;2075;51.062;6.920;2023-02-17T12:49:07;93619.63;;;-144.48;82.42
4123;BME280;2075;51.062;6.920;2023-02-17T12:51:57;93989.34;;;-144.48;80.18
4123;BME280;2075;51.062;6.920;2023-02-17T12:54:49;93629.78;;;-144.48;80.10
4123;BME280;2075;51.062;6.920;2023-02-17T12:57:41;93574.94;;;-144.48;78.78
4123;BME280;2075;51.062;6.920;2023-02-17T13:00:33;93611.50;;;-144.48;76.65
4123;BME280;2075;51.062;6.920;2023-02-17T13:03:20;93341.34;;;-144.48;75.70
4123;BME280;2075;51.062;6.920;2023-02-17T13:06:17;93666.34;;;-144.48;78.04
4123;BME280;2075;51.062;6.920;2023-02-17T13:09:16;93664.31;;;-144.48;78.29
4123;BME280;2075;51.062;6.920;2023-02-17T13:12:16;93641.97;;;-144.48;78.90
4123;BME280;2075;51.062;6.920;2023-02-17T13:15:05;93694.78;;;-144.48;80.61
4123;BME280;2075;51.062;6.920;2023-02-17T13:17:54;93688.69;;;-144.48;81.16
4123;BME280;2075;51.062;6.920;2023-02-17T13:20:52;93717.13;;;-144.48;82.99
4123;BME280;2075;51.062;6.920;2023-02-17T13:23:41;93676.50;;;-144.48;83.62
4123;BME280;2075;51.062;6.920;2023-02-17T13:26:29;93682.59;;;-144.48;85.76
4123;BME280;2075;51.062;6.920;2023-02-17T13:29:31;93656.19;;;-144.48;85.47
4123;BME280;2075;51.062;6.920;2023-02-17T13:32:26;93692.75;;;-144.48;82.94
4123;BME280;2075;51.062;6.920;2023-02-17T13:35:29;93652.13;;;-144.48;81.65
4123;BME280;2075;51.062;6.920;2023-02-17T13:38:25;93680.56;;;-144.48;80.44
4123;BME280;2075;51.062;6.920;2023-02-17T13:41:12;93660.25;;;-144.48;81.21
4123;BME280;2075;51.062;6.920;2023-02-17T13:43:58;93700.88;;;-144.48;81.93
4123;BME280;2075;51.062;6.920;2023-02-17T13:46:43;93662.28;;;-144.48;82.34
4123;BME280;2075;51.062;6.920;2023-02-17T13:49:31;93674.47;;;-144.48;83.47
4123;BME280;2075;51.062;6.920;2023-02-17T13:52:21;93725.25;;;-144.48;83.73
4123;BME280;2075;51.062;6.920;2023-02-17T13:55:17;93637.91;;;-144.48;85.18
4123;BME280;2075;51.062;6.920;2023-02-17T13:58:05;93540.41;;;-144.48;86.22
4123;BME280;2075;51.062;6.920;2023-02-17T14:00:51;93641.97;;;-144.48;87.34
4123;BME280;2075;51.062;6.920;2023-02-17T14:03:41;93501.81;;;-144.48;87.34
4123;BME280;2075;51.062;6.920;2023-02-17T14:06:29;93589.16;;;-144.48;87.97
4123;BME280;2075;51.062;6.920;2023-02-17T14:09:21;93593.22;;;-144.48;88.50
4123;BME280;2075;51.062;6.920;2023-02-17T14:12:17;93548.53;;;-144.48;88.88
4123;BME280;2075;51.062;6.920;2023-02-17T14:15:14;93465.25;;;-144.48;89.39
4123;BME280;2075;51.062;6.920;2023-02-17T14:17:59;93507.91;;;-144.48;89.84
4123;BME280;2075;51.062;6.920;2023-02-17T14:20:45;93459.16;;;-144.48;89.97
4123;BME280;2075;51.062;6.920;2023-02-17T14:23:40;93503.84;;;-144.48;89.71
4123;BME280;2075;51.062;6.920;2023-02-17T14:26:30;93570.88;;;-144.48;89.51
4123;BME280;2075;51.062;6.920;2023-02-17T14:29:16;93548.53;;;-144.48;89.07
4123;BME280;2075;51.062;6.920;2023-02-17T14:32:03;93493.69;;;-144.48;88.65
4123;BME280;2075;51.062;6.920;2023-02-17T14:34:48;93619.63;;;-144.48;88.24
4123;BME280;2075;51.062;6.920;2023-02-17T14:37:34;93623.69;;;-144.48;87.48
4123;BME280;2075;51.062;6.920;2023-02-17T14:40:21;93654.16;;;-144.48;86.92
4123;BME280;2075;51.062;6.920;2023-02-17T14:43:07;93615.56;;;-144.48;87.89
4123;BME280;2075;51.062;6.920;2023-02-17T14:45:52;93623.69;;;-144.48;88.23
4123;BME280;2075;51.062;6.920;2023-02-17T14:48:39;93503.84;;;-144.48;88.89
4123;BME280;2075;51.062;6.920;2023-02-17T14:51:30;93540.41;;;-144.48;89.30
4123;BME280;2075;51.062;6.920;2023-02-17T14:54:17;93509.94;;;-144.48;89.90
4123;BME280;2075;51.062;6.920;2023-02-17T14:57:05;93436.81;;;-144.48;90.52